Time;durP1;ratioP1;P1;durP2;ratioP2;P2;SDS_P1;SDS_P2;PMS_P1;PMS_P2;Temp;Humidity;BMP_temperature;BMP_pressure;BME280_temperature;BME280_humidity;BME280_pressure;Samples;Min_cycle;Max_cycle;Signal;HPM_P1;HPM_P2
2022/03/27 00:00:43;;;;;;;;;50.00;40.75;;;;;15.84;39.82;101962.84;6261095;22;45442;-85
2022/03/27 00:03:09;;;;;;;;;46.50;37.50;;;;;15.79;39.61;101974.41;6263167;22;45358;-85
2022/03/27 00:05:35;;;;;;;;;47.67;37.67;;;;;15.56;38.81;101922.22;6291756;22;44768;-85
2022/03/27 00:08:01;;;;;;;;;40.00;36.00;;;;;15.82;38.79;101960.13;6263987;22;45518;-85
2022/03/27 00:10:27;;;;;;;;;38.75;35.00;;;;;15.78;39.08;101969.03;6236449;22;48057;-85
2022/03/27 00:12:52;;;;;;;;;45.50;36.75;;;;;15.74;39.89;101967.19;6264542;22;45318;-85
2022/03/27 00:15:18;;;;;;;;;53.75;39.50;;;;;15.69;39.22;101961.69;6266580;22;45337;-85
2022/03/27 00:17:44;;;;;;;;;41.00;34.00;;;;;15.68;39.45;101954.56;6266088;22;45187;-85
2022/03/27 00:20:12;;;;;;;;;44.00;38.00;;;;;15.69;39.89;101961.69;6263744;22;46686;-87
2022/03/27 00:22:39;;;;;;;;;44.67;36.67;;;;;15.57;39.61;101940.09;6264274;22;45313;-85
2022/03/27 00:25:08;;;;;;;;;43.50;38.00;;;;;15.79;39.83;101971.72;6263931;22;45472;-85
2022/03/27 00:27:35;;;;;;;;;50.25;39.00;;;;;15.61;39.90;101958.03;6289529;22;45277;-85
2022/03/27 00:30:01;;;;;;;;;44.00;37.67;;;;;15.67;39.85;101963.47;6260047;22;48220;-85
2022/03/27 00:32:27;;;;;;;;;48.75;37.50;;;;;15.57;40.30;101953.50;6260356;22;45411;-85
2022/03/27 00:34:56;;;;;;;;;43.50;37.25;;;;;15.57;40.11;101950.81;6260345;22;45603;-85
2022/03/27 00:37:22;;;;;;;;;47.25;38.50;;;;;15.53;39.63;101952.59;6259822;22;45273;-86
2022/03/27 00:39:47;;;;;;;;;47.75;38.25;;;;;15.54;39.53;101950.81;6258824;22;47364;-85
2022/03/27 00:42:12;;;;;;;;;43.50;35.75;;;;;15.53;39.57;101965.06;6259111;22;45271;-86
2022/03/27 00:44:38;;;;;;;;;47.00;38.50;;;;;15.45;40.30;101940.88;6286515;22;45541;-84
2022/03/27 00:47:05;;;;;;;;;41.50;34.25;;;;;15.55;40.83;101960.63;6288194;22;45238;-85
2022/03/27 00:49:31;;;;;;;;;39.75;36.25;;;;;15.53;39.68;101967.75;6260794;22;47693;-85
2022/03/27 00:51:57;;;;;;;;;44.75;39.00;;;;;15.54;39.67;101966.88;6287920;22;45353;-85
2022/03/27 00:54:23;;;;;;;;;49.25;40.25;;;;;15.50;40.44;101954.31;6260220;22;45458;-85
2022/03/27 00:56:48;;;;;;;;;50.75;42.25;;;;;15.39;40.82;101940.75;6285020;22;45485;-85
2022/03/27 00:59:14;;;;;;;;;50.75;40.50;;;;;15.45;41.17;101959.63;6286217;22;46977;-85
2022/03/27 01:01:40;;;;;;;;;53.00;42.75;;;;;15.47;41.06;101955.19;6259590;22;45368;-84
2022/03/27 01:04:07;;;;;;;;;38.75;35.75;;;;;15.45;40.80;101959.63;6288102;22;45387;-84
2022/03/27 01:06:34;;;;;;;;;39.25;32.00;;;;;15.37;41.30;101953.25;6262193;22;45276;-84
2022/03/27 01:11:48;;;;;;;;;45.75;40.00;;;;;15.39;40.25;101948.78;6287596;22;45313;-84
2022/03/27 01:14:21;;;;;;;;;48.33;39.00;;;;;15.51;40.25;101951.66;6261999;22;45329;-84
2022/03/27 01:16:57;;;;;;;;;49.25;35.75;;;;;15.45;41.17;101945.31;6261461;22;45565;-83
2022/03/27 01:19:23;;;;;;;;;51.00;40.50;;;;;15.28;40.45;101935.25;6260195;22;47136;-84
2022/03/27 01:21:48;;;;;;;;;51.25;40.50;;;;;15.37;40.14;101964.88;6260787;22;44869;-83
2022/03/27 01:24:16;;;;;;;;;45.00;37.00;;;;;15.42;40.63;101954.22;6261631;22;45750;-84
2022/03/27 01:26:42;;;;;;;;;50.75;39.50;;;;;15.31;41.60;101943.34;6261742;22;45615;-85
2022/03/27 01:29:09;;;;;;;;;51.50;38.25;;;;;15.39;41.39;101935.41;6260615;22;45554;-84
2022/03/27 01:31:35;;;;;;;;;49.33;39.67;;;;;15.26;41.53;101936.13;6260658;22;45262;-84
2022/03/27 01:34:01;;;;;;;;;36.00;34.33;;;;;15.19;41.30;101924.44;6259030;22;45231;-85
2022/03/27 01:36:34;;;;;;;;;45.33;36.33;;;;;15.29;41.80;101928.09;6258117;22;44763;-85
2022/03/27 01:39:00;;;;;;;;;44.00;33.33;;;;;15.21;41.99;101936.06;6258669;22;46950;-84
2022/03/27 01:44:47;;;;;;;;;50.00;41.25;;;;;15.11;42.02;101912.72;6287514;22;45293;-84
2022/03/27 01:47:13;;;;;;;;;43.33;36.33;;;;;15.12;41.93;101917.16;6288962;22;45269;-85
2022/03/27 01:49:41;;;;;;;;;49.67;38.00;;;;;15.22;41.43;101921.78;6260340;22;47449;-85
2022/03/27 01:52:07;;;;;;;;;53.00;39.75;;;;;15.13;41.99;101922.56;6287854;22;45460;-85
2022/03/27 01:57:55;;;;;;;;;48.00;38.50;;;;;15.19;41.68;101911.03;6290237;22;45286;-85
2022/03/27 02:00:21;;;;;;;;;41.33;36.33;;;;;15.08;41.86;101916.22;6263400;22;47232;-85
2022/03/27 02:02:46;;;;;;;;;40.00;35.00;;;;;15.05;41.76;101912.59;6264124;22;45283;-85
2022/03/27 02:05:12;;;;;;;;;45.00;38.67;;;;;15.00;42.74;101900.03;6287725;22;45418;-85
2022/03/27 02:07:42;;;;;;;;;46.25;38.25;;;;;15.04;42.75;101911.69;6261900;22;45322;-85
2022/03/27 02:10:45;;;;;;;;;46.75;38.25;;;;;15.16;42.71;101916.34;6262373;22;47263;-85
2022/03/27 02:13:22;;;;;;;;;37.00;34.00;;;;;15.09;42.57;101909.06;6289700;22;45289;-85
2022/03/27 02:15:49;;;;;;;;;29.00;25.33;;;;;14.88;42.21;101909.66;6261719;22;45444;-85
2022/03/27 02:18:16;;;;;;;;;44.67;37.00;;;;;14.90;43.13;101903.44;6262643;22;45678;-85
2022/03/27 02:20:43;;;;;;;;;49.75;38.75;;;;;14.75;43.07;101904.13;6262008;22;47787;-85
2022/03/27 02:23:10;;;;;;;;;40.67;36.00;;;;;14.77;42.67;101896.13;6261804;22;45333;-85
2022/03/27 02:25:35;;;;;;;;;46.75;36.75;;;;;14.75;42.62;101909.47;6289584;22;45473;-85
2022/03/27 02:28:02;;;;;;;;;43.50;37.25;;;;;14.75;42.99;101903.25;6261277;22;45394;-85
2022/03/27 02:30:28;;;;;;;;;40.00;36.33;;;;;14.69;42.87;101906.72;6262017;22;46842;-85
2022/03/27 02:32:53;;;;;;;;;48.00;36.67;;;;;14.67;44.29;101912.94;6261978;22;44732;-85
2022/03/27 02:35:19;;;;;;;;;42.00;35.33;;;;;14.65;43.57;101906.66;6263356;22;45644;-84
2022/03/27 02:37:44;;;;;;;;;32.00;30.67;;;;;14.64;44.14;101913.75;6291126;22;45291;-85
2022/03/27 02:40:12;;;;;;;;;47.00;38.33;;;;;14.49;42.86;101894.75;6261924;22;45436;-85
2022/03/27 02:42:38;;;;;;;;;45.50;36.25;;;;;14.60;43.93;101920.88;6262204;22;45384;-84
2022/03/27 02:45:05;;;;;;;;;39.67;34.00;;;;;14.62;43.61;101928.00;6262296;22;45306;-84
2022/03/27 02:47:32;;;;;;;;;45.67;38.00;;;;;14.49;43.54;101905.47;6235325;22;45347;-83
2022/03/27 02:49:57;;;;;;;;;45.67;34.00;;;;;14.55;43.26;101916.28;6261971;22;45471;-83
2022/03/27 02:52:24;;;;;;;;;40.00;33.67;;;;;14.67;43.21;101915.59;6262674;22;45607;-83
2022/03/27 02:54:51;;;;;;;;;35.33;29.67;;;;;14.63;43.78;101911.09;6262199;22;45330;-84
2022/03/27 02:57:16;;;;;;;;;39.67;33.67;;;;;14.48;44.19;101909.94;6289538;22;45240;-84
2022/03/27 02:59:42;;;;;;;;;42.67;34.67;;;;;14.49;44.48;101914.38;6288871;22;45919;-84
2022/03/27 03:02:08;;;;;;;;;46.00;38.00;;;;;14.47;43.92;101918.81;6260324;22;45356;-84
2022/03/27 03:04:37;;;;;;;;;35.33;33.67;;;;;14.41;43.66;101906.22;6260663;22;45257;-85
2022/03/27 03:07:03;;;;;;;;;38.33;32.00;;;;;14.44;43.73;101910.75;6260188;22;45268;-85
2022/03/27 03:09:29;;;;;;;;;44.00;37.67;;;;;14.49;43.83;101918.84;6258389;22;47958;-85
2022/03/27 03:11:55;;;;;;;;;42.33;35.00;;;;;14.44;43.69;101913.44;6261990;22;44862;-86
2022/03/27 03:14:20;;;;;;;;;31.00;30.67;;;;;14.46;43.97;101925.06;6291247;22;45355;-85
2022/03/27 03:16:47;;;;;;;;;37.33;33.33;;;;;14.50;43.49;101917.94;6292244;22;45240;-86
2022/03/27 03:19:12;;;;;;;;;41.33;33.67;;;;;14.44;43.69;101918.78;6264143;22;47045;-84
2022/03/27 03:21:40;;;;;;;;;44.67;36.33;;;;;14.39;43.53;101910.66;6264647;22;45306;-84
2022/03/27 03:24:06;;;;;;;;;42.67;36.00;;;;;14.52;43.63;101925.16;6264340;22;45267;-84
2022/03/27 03:26:32;;;;;;;;;38.33;31.67;;;;;14.46;43.60;101919.72;6261608;22;44803;-85
2022/03/27 03:28:58;;;;;;;;;32.33;28.33;;;;;14.46;43.47;101916.09;6289194;22;45128;-85
2022/03/27 03:31:25;;;;;;;;;43.67;33.67;;;;;14.56;43.89;101919.00;6262915;22;45630;-84
2022/03/27 03:33:50;;;;;;;;;46.00;34.33;;;;;14.41;43.50;101913.34;6290852;22;44751;-84
2022/03/27 03:36:16;;;;;;;;;38.67;34.33;;;;;14.45;43.40;101920.56;6290714;22;44660;-85
2022/03/27 03:38:44;;;;;;;;;42.67;35.00;;;;;14.56;43.31;101912.72;6290011;22;45238;-85
2022/03/27 03:41:10;;;;;;;;;37.67;32.67;;;;;14.45;43.61;101917.00;6290240;22;45678;-84
2022/03/27 03:43:36;;;;;;;;;38.33;33.33;;;;;14.48;43.94;101909.94;6260780;22;44740;-84
2022/03/27 03:46:03;;;;;;;;;41.00;35.00;;;;;14.46;43.70;101911.69;6261554;22;45208;-83
2022/03/27 03:48:28;;;;;;;;;36.00;32.67;;;;;14.41;43.95;101916.03;6259899;22;47767;-86
2022/03/27 03:50:54;;;;;;;;;36.67;32.67;;;;;14.39;44.02;101916.00;6260610;22;44820;-84
2022/03/27 03:53:21;;;;;;;;;38.33;32.00;;;;;14.43;44.24;101922.31;6261074;22;45733;-85
2022/03/27 03:55:49;;;;;;;;;39.00;34.00;;;;;14.33;44.93;101917.69;6261052;22;45210;-84
2022/03/27 03:58:18;;;;;;;;;33.00;30.33;;;;;14.36;44.26;101905.25;6262044;22;46785;-84
2022/03/27 04:00:46;;;;;;;;;36.67;32.00;;;;;14.29;44.02;101913.16;6262332;22;45283;-85
2022/03/27 04:03:13;;;;;;;;;42.33;34.00;;;;;14.28;44.19;101914.00;6263365;22;45449;-85
2022/03/27 04:05:38;;;;;;;;;31.67;30.00;;;;;14.27;43.74;101921.13;6289920;22;44817;-84
2022/03/27 04:08:04;;;;;;;;;28.00;25.67;;;;;14.30;44.02;101912.25;6261968;22;46585;-85
2022/03/27 04:10:30;;;;;;;;;36.33;32.67;;;;;14.30;44.85;101915.84;6262053;22;45568;-84
2022/03/27 04:12:56;;;;;;;;;34.00;31.33;;;;;14.25;45.01;101913.97;6261226;22;45515;-84
2022/03/27 04:15:21;;;;;;;;;48.00;35.33;;;;;14.16;44.89;101912.94;6289830;22;45262;-85
2022/03/27 04:17:48;;;;;;;;;31.00;26.00;;;;;14.20;44.52;101909.44;6288964;22;45483;-85
2022/03/27 04:20:15;;;;;;;;;36.33;33.33;;;;;14.23;44.48;101924.63;6288146;22;45546;-85
2022/03/27 04:22:42;;;;;;;;;34.67;29.33;;;;;14.19;44.78;101918.31;6261127;22;45361;-85
2022/03/27 04:25:09;;;;;;;;;43.00;34.00;;;;;14.24;44.27;101920.19;6262682;22;45324;-85
2022/03/27 04:27:35;;;;;;;;;36.00;35.00;;;;;14.22;44.22;101922.84;6289839;22;45714;-85
2022/03/27 04:30:08;;;;;;;;;37.00;35.00;;;;;14.23;44.41;101908.59;6261786;22;45389;-85
2022/03/27 04:32:34;;;;;;;;;34.33;31.33;;;;;14.19;44.13;101929.03;6289703;22;45265;-84
2022/03/27 04:34:59;;;;;;;;;35.67;33.67;;;;;14.16;45.15;101928.97;6290110;22;45731;-86
2022/03/27 04:37:25;;;;;;;;;43.33;34.67;;;;;14.05;44.44;101909.16;6259081;22;47592;-85
2022/03/27 04:39:50;;;;;;;;;38.00;34.67;;;;;14.04;44.48;101910.03;6287476;22;45419;-85
2022/03/27 04:42:16;;;;;;;;;39.00;32.33;;;;;14.16;44.55;101928.97;6287820;22;45422;-85
2022/03/27 04:44:41;;;;;;;;;41.33;35.67;;;;;14.07;44.54;101923.44;6264134;22;45096;-85
2022/03/27 04:47:07;;;;;;;;;37.00;34.00;;;;;14.19;44.43;101936.16;6264161;22;47288;-85
2022/03/27 04:49:33;;;;;;;;;35.00;33.00;;;;;14.13;44.81;101944.97;6263353;22;45387;-85
2022/03/27 04:51:58;;;;;;;;;34.67;30.67;;;;;14.05;45.98;101941.25;6264462;22;45489;-85
2022/03/27 04:54:24;;;;;;;;;44.67;37.00;;;;;14.00;45.70;101932.25;6264080;22;45544;-84
2022/03/27 04:56:55;;;;;;;;;40.33;35.00;;;;;14.11;45.40;101925.31;6262175;22;46755;-85
2022/03/27 04:59:21;;;;;;;;;30.33;29.33;;;;;13.93;45.36;101941.91;6259645;22;45753;-85
2022/03/27 05:01:46;;;;;;;;;41.67;34.33;;;;;13.96;44.91;101947.31;6286768;22;45375;-85
2022/03/27 05:04:12;;;;;;;;;46.67;35.00;;;;;13.85;45.27;101929.25;6259603;22;45250;-85
2022/03/27 05:06:37;;;;;;;;;34.00;31.67;;;;;13.92;45.81;101944.56;6287205;22;45388;-85
2022/03/27 05:09:03;;;;;;;;;45.33;38.33;;;;;13.82;46.90;101937.25;6261407;22;45759;-85
2022/03/27 05:11:29;;;;;;;;;39.67;33.00;;;;;13.82;45.69;101943.50;6260993;22;44795;-85
2022/03/27 05:14:01;;;;;;;;;39.00;35.00;;;;;13.89;45.42;101949.84;6293901;22;45403;-84
2022/03/27 05:16:27;;;;;;;;;35.00;33.33;;;;;13.81;45.93;101944.34;6266889;22;46799;-85
2022/03/27 05:18:53;;;;;;;;;29.00;21.00;;;;;13.80;46.06;101954.16;6266841;22;45294;-85
2022/03/27 05:21:18;;;;;;;;;35.67;30.67;;;;;13.77;45.64;101946.03;6265085;22;44716;-84
2022/03/27 05:23:44;;;;;;;;;33.00;28.33;;;;;13.77;45.60;101955.84;6266202;22;45310;-84
2022/03/27 05:26:09;;;;;;;;;48.33;40.33;;;;;13.71;45.90;101951.28;6265509;22;46848;-84
2022/03/27 05:28:35;;;;;;;;;37.33;34.33;;;;;13.75;45.87;101955.81;6266006;22;45271;-84
2022/03/27 05:31:04;;;;;;;;;35.00;30.33;;;;;13.80;45.83;101958.59;6265588;22;45251;-85
2022/03/27 05:33:29;;;;;;;;;38.00;34.33;;;;;13.70;46.00;101959.28;6267040;22;45336;-85
2022/03/27 05:35:55;;;;;;;;;35.33;29.67;;;;;13.75;45.79;101966.50;6294190;22;45390;-85
2022/03/27 05:38:20;;;;;;;;;38.00;31.67;;;;;13.72;45.94;101969.13;6294617;22;45399;-84
2022/03/27 05:40:47;;;;;;;;;31.67;27.67;;;;;13.71;45.98;101955.72;6266185;22;45255;-86
2022/03/27 05:43:12;;;;;;;;;42.25;34.75;;;;;13.70;45.98;101953.94;6264611;22;45336;-86
2022/03/27 05:45:38;;;;;;;;;39.33;34.33;;;;;13.71;45.83;101959.28;6264295;22;46628;-85
2022/03/27 05:48:04;;;;;;;;;35.00;32.33;;;;;13.74;45.40;101971.84;6263913;22;45390;-85
2022/03/27 05:50:30;;;;;;;;;40.67;34.33;;;;;13.60;45.51;101939.47;6261309;22;45302;-86
2022/03/27 05:52:55;;;;;;;;;39.00;35.00;;;;;13.66;45.85;101952.97;6262413;22;45771;-86
2022/03/27 05:55:22;;;;;;;;;35.33;29.33;;;;;13.66;45.93;101942.28;6262344;22;47834;-85
2022/03/27 05:57:49;;;;;;;;;39.67;33.33;;;;;13.86;45.98;101960.50;6289591;22;45391;-85
2022/03/27 06:00:20;;;;;;;;;37.33;32.33;;;;;13.83;45.45;101971.13;6259358;22;45837;-85
2022/03/27 06:02:46;;;;;;;;;37.67;27.67;;;;;13.82;45.94;101974.69;6259037;22;45445;-86
2022/03/27 06:05:11;;;;;;;;;37.67;29.67;;;;;13.83;45.76;101976.47;6258528;22;46554;-86
2022/03/27 06:07:47;;;;;;;;;41.67;35.00;;;;;13.97;45.41;101959.81;6287764;22;45341;-86
2022/03/27 06:10:18;;;;;;;;;31.33;30.00;;;;;13.99;45.52;101981.25;6260239;22;45402;-86
2022/03/27 06:12:44;;;;;;;;;39.00;32.00;;;;;13.87;45.86;101978.34;6259311;22;44791;-84
2022/03/27 06:15:11;;;;;;;;;35.67;34.33;;;;;13.91;45.78;101985.53;6261168;22;46754;-85
2022/03/27 06:17:48;;;;;;;;;40.33;34.33;;;;;14.03;45.71;101974.19;6261588;22;45435;-84
2022/03/27 06:20:19;;;;;;;;;39.33;35.33;;;;;14.08;45.59;101977.84;6261065;22;45416;-85
2022/03/27 06:22:47;;;;;;;;;35.00;32.00;;;;;14.12;45.71;101983.31;6261442;22;45724;-85
2022/03/27 06:25:15;;;;;;;;;25.00;23.33;;;;;14.13;46.44;101982.41;6261630;22;46592;-85
2022/03/27 06:27:41;;;;;;;;;44.33;33.67;;;;;14.03;46.27;101975.09;6261491;22;45638;-85
2022/03/27 06:30:12;;;;;;;;;37.33;33.00;;;;;14.21;45.66;101988.81;6261512;22;45705;-84
2022/03/27 06:32:38;;;;;;;;;43.00;37.67;;;;;14.05;45.66;101973.34;6260349;22;45358;-83
2022/03/27 06:35:07;;;;;;;;;35.67;29.67;;;;;14.33;45.23;101988.16;6259652;22;47134;-83
2022/03/27 06:37:33;;;;;;;;;37.00;31.67;;;;;14.26;46.07;101980.91;6289195;22;45345;-83
2022/03/27 06:39:59;;;;;;;;;33.33;30.33;;;;;14.25;45.57;101980.88;6261151;22;44734;-84
2022/03/27 06:42:29;;;;;;;;;37.33;29.00;;;;;14.32;45.17;101988.13;6289495;22;45255;-84
2022/03/27 06:44:55;;;;;;;;;33.33;25.33;;;;;14.34;46.06;101981.00;6262543;22;45656;-84
2022/03/27 06:47:23;;;;;;;;;37.00;32.33;;;;;14.43;45.28;101989.22;6262426;22;45256;-85
2022/03/27 06:49:51;;;;;;;;;39.33;33.33;;;;;14.54;45.13;101990.34;6262018;22;45132;-84
2022/03/27 06:52:18;;;;;;;;;37.33;35.00;;;;;14.45;45.13;101963.38;6261522;22;45041;-84
2022/03/27 06:54:47;;;;;;;;;45.33;34.33;;;;;14.58;44.99;101983.25;6260355;22;47203;-84
2022/03/27 06:57:14;;;;;;;;;46.33;36.67;;;;;14.52;45.10;101970.66;6259356;22;45620;-84
2022/03/27 07:05:10;;;;;;;;;39.33;34.67;;;;;14.86;44.69;101971.25;6285420;22;45399;-84
2022/03/27 07:07:36;;;;;;;;;38.33;33.00;;;;;14.80;44.79;101980.09;6261973;22;45616;-84
2022/03/27 07:10:02;;;;;;;;;37.00;35.33;;;;;14.79;44.49;101977.41;6263790;22;45306;-85
2022/03/27 07:12:28;;;;;;;;;45.33;34.00;;;;;14.85;44.41;101977.50;6262483;22;45738;-85
2022/03/27 07:14:54;;;;;;;;;36.33;32.33;;;;;14.91;44.49;101977.59;6291011;22;45043;-85
2022/03/27 07:17:19;;;;;;;;;36.00;30.67;;;;;14.96;44.26;101989.25;6262815;22;45397;-85
2022/03/27 07:19:45;;;;;;;;;40.00;36.33;;;;;15.12;44.18;101984.16;6263234;22;45458;-84
2022/03/27 07:22:11;;;;;;;;;35.67;29.33;;;;;15.12;44.45;101981.47;6263398;22;45344;-84
2022/03/27 07:24:37;;;;;;;;;37.00;33.67;;;;;15.11;44.68;101982.38;6262809;22;46997;-85
2022/03/27 07:27:03;;;;;;;;;36.33;30.00;;;;;15.12;44.21;101989.50;6290731;22;44680;-85
2022/03/27 07:29:32;;;;;;;;;45.67;34.00;;;;;15.15;44.01;101989.56;6266529;22;44732;-85
2022/03/27 07:31:58;;;;;;;;;40.00;33.00;;;;;15.19;43.86;101986.06;6293804;22;45419;-85
2022/03/27 07:34:24;;;;;;;;;33.33;31.33;;;;;15.26;44.02;101993.31;6266586;22;46680;-85
2022/03/27 07:36:49;;;;;;;;;35.67;31.33;;;;;15.33;43.86;101995.22;6264457;22;44757;-84
2022/03/27 07:39:15;;;;;;;;;41.25;34.75;;;;;15.43;43.59;101993.56;6264621;22;45820;-84
2022/03/27 07:41:40;;;;;;;;;47.33;34.67;;;;;15.44;43.72;101994.47;6263743;22;45335;-85
2022/03/27 07:44:07;;;;;;;;;47.33;38.00;;;;;15.58;43.26;101990.19;6262042;22;47777;-85
2022/03/27 07:46:33;;;;;;;;;37.33;33.67;;;;;15.61;43.38;101990.22;6261920;22;45322;-85
2022/03/27 07:48:58;;;;;;;;;33.67;27.67;;;;;15.68;43.33;101984.06;6260450;22;45128;-85
2022/03/27 07:51:27;;;;;;;;;40.67;34.00;;;;;15.80;43.11;101996.75;6287274;22;45332;-84
2022/03/27 07:53:55;;;;;;;;;41.67;35.67;;;;;15.96;43.13;101987.13;6263046;22;47218;-84
2022/03/27 07:56:21;;;;;;;;;33.67;32.33;;;;;15.83;42.81;101994.09;6263413;22;44746;-85
2022/03/27 07:58:46;;;;;;;;;41.67;34.33;;;;;15.73;42.85;101979.66;6288021;22;44839;-85
2022/03/27 08:01:14;;;;;;;;;40.33;35.00;;;;;15.83;42.95;101996.78;6287887;22;45363;-85
2022/03/27 08:03:41;;;;;;;;;36.33;30.00;;;;;15.75;42.84;102002.09;6261587;22;45572;-85
2022/03/27 08:06:08;;;;;;;;;40.33;32.67;;;;;15.78;42.74;101994.06;6258524;22;45056;-85
2022/03/27 08:08:33;;;;;;;;;42.33;32.67;;;;;15.58;42.83;101949.97;6261480;22;45433;-84
2022/03/27 08:10:59;;;;;;;;;29.67;28.67;;;;;15.83;42.67;101995.91;6260029;22;44741;-84
2022/03/27 08:13:26;;;;;;;;;36.67;31.33;;;;;15.99;42.53;102003.25;6255869;22;47659;-84
2022/03/27 08:15:53;;;;;;;;;32.00;27.67;;;;;15.75;42.50;101972.56;6230881;22;45492;-85
2022/03/27 08:18:18;;;;;;;;;34.33;34.00;;;;;15.91;42.52;101994.19;6231914;22;45247;-85
2022/03/27 08:20:46;;;;;;;;;32.00;28.67;;;;;16.13;42.27;102001.63;6258008;22;45369;-86
2022/03/27 08:23:12;;;;;;;;;33.00;32.00;;;;;16.03;42.16;101994.34;6231203;22;46882;-86
2022/03/27 08:28:22;;;;;;;;;39.00;33.67;;;;;16.23;41.86;101983.84;6256231;22;45092;-86
2022/03/27 08:30:48;;;;;;;;;35.67;34.33;;;;;16.46;41.65;102000.19;6228052;22;45842;-85
2022/03/27 08:33:46;;;;;;;;;27.67;25.67;;;;;16.70;41.15;101990.53;6228269;22;47850;-86
2022/03/27 08:36:12;;;;;;;;;33.67;27.00;;;;;16.53;41.11;101993.97;6256149;22;45358;-86
2022/03/27 08:38:38;;;;;;;;;40.67;34.33;;;;;16.59;41.13;101991.34;6258185;22;45291;-86
2022/03/27 08:41:05;;;;;;;;;38.33;30.67;;;;;16.73;40.86;101994.16;6230990;22;45282;-86
2022/03/27 08:43:33;;;;;;;;;37.67;30.33;;;;;16.83;41.05;101999.66;6231231;22;47227;-84
2022/03/27 08:46:04;;;;;;;;;39.67;36.33;;;;;16.86;40.62;101988.94;6261327;22;44833;-84
2022/03/27 08:48:33;;;;;;;;;38.00;31.67;;;;;16.80;41.29;101995.09;6234026;22;45339;-85
2022/03/27 08:51:28;;;;;;;;;41.67;33.33;;;;;17.02;40.53;102000.69;6232998;22;45442;-84
2022/03/27 08:54:01;;;;;;;;;39.33;34.33;;;;;16.99;40.78;101974.72;6222202;22;47725;-84
2022/03/27 08:56:30;;;;;;;;;34.33;30.67;;;;;17.12;40.74;101994.50;6234319;22;44785;-84
2022/03/27 08:58:59;;;;;;;;;35.33;32.00;;;;;17.16;40.08;101996.31;6234371;22;44777;-85
2022/03/27 09:01:26;;;;;;;;;28.33;27.33;;;;;17.06;40.46;101989.09;6235500;22;44842;-85
2022/03/27 09:03:52;;;;;;;;;31.67;29.67;;;;;17.08;40.25;101992.69;6234173;22;46875;-85
2022/03/27 09:06:18;;;;;;;;;31.67;31.00;;;;;17.23;40.25;101995.50;6208098;22;45594;-85
2022/03/27 09:08:45;;;;;;;;;42.67;36.00;;;;;17.49;39.66;102000.09;6256593;22;44748;-85
2022/03/27 09:11:17;;;;;;;;;37.67;33.67;;;;;17.54;39.88;102001.94;6256941;22;45375;-84
2022/03/27 09:13:46;;;;;;;;;30.00;28.00;;;;;17.63;39.82;102006.47;6256467;22;47092;-86
2022/03/27 09:16:12;;;;;;;;;30.00;28.00;;;;;17.54;39.20;101998.34;6289550;22;45428;-85
2022/03/27 09:18:57;;;;;;;;;37.33;33.00;;;;;17.73;38.99;102015.47;6289633;22;45384;-85
2022/03/27 09:21:27;;;;;;;;;31.00;29.33;;;;;17.49;39.20;101994.72;6265032;22;45185;-85
2022/03/27 09:23:56;;;;;;;;;36.67;32.00;;;;;17.67;39.08;102019.03;6260511;22;46916;-85
2022/03/27 09:26:22;;;;;;;;;36.00;28.67;;;;;17.45;39.16;101985.78;6260529;22;45733;-85
2022/03/27 09:28:50;;;;;;;;;37.67;32.33;;;;;17.51;38.91;101980.41;6285411;22;45447;-85
2022/03/27 09:31:19;;;;;;;;;31.00;29.00;;;;;17.55;38.64;102013.59;6286300;22;44770;-85
2022/03/27 09:33:47;;;;;;;;;35.33;31.33;;;;;17.45;39.05;101969.63;6258522;22;46762;-84
2022/03/27 09:36:24;;;;;;;;;37.67;33.00;;;;;17.80;39.02;102002.06;6259293;22;45647;-85
2022/03/27 09:39:11;;;;;;;;;33.00;30.00;;;;;17.96;38.48;102004.88;6257890;22;45273;-85
2022/03/27 09:41:51;;;;;;;;;38.33;32.33;;;;;17.84;38.05;102000.34;6258306;22;45298;-84
2022/03/27 09:44:19;;;;;;;;;32.33;30.33;;;;;18.03;38.26;102006.66;6257578;22;46790;-84
2022/03/27 09:46:49;;;;;;;;;37.00;33.67;;;;;18.13;37.88;102002.22;6258035;22;45326;-84
2022/03/27 09:49:19;;;;;;;;;38.33;33.00;;;;;18.06;37.86;101990.53;6257776;22;45772;-84
2022/03/27 09:51:58;;;;;;;;;29.00;28.00;;;;;18.24;37.41;101987.00;6259353;22;45623;-84
2022/03/27 09:54:24;;;;;;;;;35.67;27.00;;;;;18.18;38.09;101993.28;6258006;22;46693;-85
2022/03/27 09:56:50;;;;;;;;;37.00;34.00;;;;;18.23;38.17;101992.38;6286877;22;45712;-85
2022/03/27 09:59:27;;;;;;;;;35.33;31.33;;;;;18.47;37.12;101989.72;6235981;22;45291;-84
2022/03/27 10:01:53;;;;;;;;;26.67;24.00;;;;;18.33;36.90;101988.81;6262086;22;45246;-85
2022/03/27 10:05:15;;;;;;;;;28.00;25.33;;;;;18.54;37.23;101983.47;6259571;22;45360;-84
2022/03/27 10:07:52;;;;;;;;;31.67;30.00;;;;;18.48;36.85;101994.22;6286696;22;44831;-85
2022/03/27 10:10:21;;;;;;;;;33.00;31.33;;;;;18.59;37.59;101975.38;6259190;22;45710;-85
2022/03/27 10:12:50;;;;;;;;;34.00;31.67;;;;;18.58;37.38;101966.41;6255956;22;45564;-86
2022/03/27 10:15:17;;;;;;;;;36.00;31.33;;;;;18.50;37.37;101949.34;6255925;22;46657;-85
2022/03/27 10:17:50;;;;;;;;;37.00;32.67;;;;;18.85;36.55;101983.50;6284940;22;45364;-85
2022/03/27 10:20:18;;;;;;;;;34.67;31.33;;;;;18.88;37.05;101987.97;6258367;22;45515;-85
2022/03/27 10:22:47;;;;;;;;;29.67;27.67;;;;;18.97;36.98;101977.22;6259236;22;44792;-84
2022/03/27 10:25:16;;;;;;;;;36.67;31.00;;;;;19.11;36.82;101974.50;6288379;22;45475;-85
2022/03/27 10:27:47;;;;;;;;;29.33;27.00;;;;;19.23;36.48;101958.28;6289047;22;44692;-85
2022/03/27 10:30:14;;;;;;;;;38.67;33.00;;;;;19.19;36.63;101964.59;6291471;22;45439;-84
2022/03/27 10:32:42;;;;;;;;;38.67;34.67;;;;;19.14;36.09;101961.88;6263497;22;45196;-84
2022/03/27 10:35:38;;;;;;;;;31.67;28.67;;;;;19.33;36.06;101959.13;6290349;22;45332;-84
2022/03/27 10:38:48;;;;;;;;;17.00;16.00;;;;;19.43;36.20;101960.00;6262152;22;45304;-84
2022/03/27 10:41:38;;;;;;;;;40.67;33.67;;;;;19.41;35.52;101953.72;6261448;22;45300;-84
2022/03/27 10:44:12;;;;;;;;;30.33;27.33;;;;;19.40;35.83;101947.44;6264875;22;45398;-85
2022/03/27 10:46:38;;;;;;;;;32.67;29.67;;;;;19.31;35.94;101950.16;6263679;22;45534;-85
2022/03/27 10:49:12;;;;;;;;;33.67;32.00;;;;;19.54;36.02;101944.69;6262769;22;45369;-84
2022/03/27 10:51:41;;;;;;;;;36.00;31.33;;;;;19.64;36.03;101942.88;6263757;22;45343;-84
2022/03/27 10:54:11;;;;;;;;;35.67;31.67;;;;;19.76;35.51;101942.84;6292629;22;45613;-84
2022/03/27 10:56:39;;;;;;;;;41.67;34.00;;;;;19.71;34.89;101926.69;6263498;22;47256;-84
2022/03/27 10:59:14;;;;;;;;;34.33;32.00;;;;;19.81;35.32;101934.72;6263141;22;45599;-84
2022/03/27 11:01:45;;;;;;;;;31.33;28.67;;;;;19.88;34.89;101923.00;6238233;22;45319;-85
2022/03/27 11:04:11;;;;;;;;;35.33;31.33;;;;;19.82;34.89;101932.00;6290129;22;44810;-86
2022/03/27 11:06:55;;;;;;;;;33.67;31.67;;;;;20.01;34.47;101927.38;6289819;22;45412;-85
2022/03/27 11:09:35;;;;;;;;;34.00;30.33;;;;;20.11;34.08;101917.44;6254146;22;45501;-85
2022/03/27 11:12:06;;;;;;;;;39.33;33.67;;;;;19.90;33.92;101896.88;6262460;22;45359;-85
2022/03/27 11:15:06;;;;;;;;;34.33;31.33;;;;;20.16;33.86;101911.09;6263825;22;44684;-84
2022/03/27 11:17:44;;;;;;;;;32.67;28.33;;;;;19.95;33.75;101895.91;6262236;22;46656;-85
2022/03/27 11:20:23;;;;;;;;;37.00;30.33;;;;;20.19;33.04;101910.16;6290577;22;45443;-85
2022/03/27 11:22:58;;;;;;;;;40.00;33.00;;;;;20.15;33.66;101900.28;6290304;22;45301;-85
2022/03/27 11:25:28;;;;;;;;;46.33;35.33;;;;;20.16;33.58;101897.59;6263796;22;45750;-86
2022/03/27 11:28:05;;;;;;;;;37.67;33.00;;;;;20.11;33.07;101898.53;6263222;22;46732;-85
2022/03/27 11:30:32;;;;;;;;;48.00;36.33;;;;;20.22;32.90;101903.84;6261857;22;45453;-85
2022/03/27 11:33:31;;;;;;;;;38.67;32.67;;;;;20.42;33.28;101904.63;6261231;22;45397;-85